Time;durP1;ratioP1;P1;durP2;ratioP2;P2;SDS_P1;SDS_P2;PMS_P1;PMS_P2;Temp;Humidity;BMP_temperature;BMP_pressure;BME280_temperature;BME280_humidity;BME280_pressure;Samples;Min_cycle;Max_cycle;Signal;HPM_P1;HPM_P2
2022/01/23 00:02:11;;;;;;;2.47;1.75;;;9.80;94.00;;;;;;5101483;28;20551;-68
2022/01/23 00:04:37;;;;;;;5.60;1.67;;;9.70;94.00;;;;;;5081079;28;20035;-68
2022/01/23 00:07:07;;;;;;;0.70;0.70;;;9.70;94.00;;;;;;5093145;28;20024;-68
2022/01/23 00:09:32;;;;;;;0.40;0.40;;;9.70;94.10;;;;;;5093963;28;20040;-68
2022/01/23 00:12:03;;;;;;;7.82;1.35;;;9.70;94.10;;;;;;5106893;28;20035;-68
2022/01/23 00:17:24;;;;;;;;;;;9.70;94.10;;;;;;5080809;28;20032;-68
2022/01/23 00:19:56;;;;;;;0.43;0.43;;;9.70;94.10;;;;;;5106322;28;19907;-68
2022/01/23 00:22:28;;;;;;;1.23;0.82;;;9.60;94.10;;;;;;5093550;28;20115;-68
2022/01/23 00:30:30;;;;;;;4.43;0.82;;;9.60;94.10;;;;;;5093324;28;20052;-68
2022/01/23 00:33:02;;;;;;;0.40;0.40;;;9.60;94.20;;;;;;5091733;28;20206;-68
2022/01/23 00:35:29;;;;;;;3.42;1.48;;;9.60;94.20;;;;;;5092374;28;20387;-68
2022/01/23 00:37:56;;;;;;;4.07;1.50;;;9.50;94.20;;;;;;5088976;28;20028;-68
2022/01/23 00:40:23;;;;;;;3.58;1.60;;;9.50;94.20;;;;;;5084004;28;20395;-68
2022/01/23 00:42:49;;;;;;;5.78;1.85;;;9.60;94.30;;;;;;5092784;28;20062;-68
2022/01/23 00:45:41;;;;;;;4.70;0.60;;;9.60;94.30;;;;;;5093163;28;20040;-68
2022/01/23 00:48:08;;;;;;;1.55;0.90;;;9.60;94.30;;;;;;5091146;28;20028;-68
2022/01/23 00:50:38;;;;;;;7.78;1.48;;;9.50;94.20;;;;;;5091388;28;20059;-68
2022/01/23 00:53:05;;;;;;;1.75;0.63;;;9.50;94.30;;;;;;5108440;28;20537;-68
2022/01/23 00:55:30;;;;;;;1.95;1.10;;;9.50;94.30;;;;;;5099368;28;20034;-68
2022/01/23 00:57:56;;;;;;;3.50;0.80;;;9.50;94.30;;;;;;5091188;28;20134;-68
2022/01/23 01:00:23;;;;;;;3.47;1.25;;;9.60;94.30;;;;;;5091565;28;20039;-69
2022/01/23 01:02:49;;;;;;;9.80;1.60;;;9.60;94.30;;;;;;5092107;28;20032;-68
2022/01/23 01:05:15;;;;;;;9.77;1.60;;;9.60;94.30;;;;;;5093081;28;20481;-68
2022/01/23 01:07:41;;;;;;;2.72;1.10;;;9.50;94.30;;;;;;5092343;28;20110;-68
2022/01/23 01:10:12;;;;;;;1.63;1.00;;;9.60;94.30;;;;;;5092346;28;20053;-68
2022/01/23 01:12:42;;;;;;;1.20;0.68;;;9.60;94.30;;;;;;5081513;28;20059;-68
2022/01/23 01:34:15;;;;;;;1.17;0.95;;;9.40;94.30;;;;;;5087949;28;20071;-68
2022/01/23 01:36:50;;;;;;;9.85;1.02;;;9.50;94.30;;;;;;5079012;28;20027;-68
2022/01/23 01:39:20;;;;;;;3.38;0.90;;;9.50;94.30;;;;;;5094257;28;20030;-68
2022/01/23 01:41:46;;;;;;;6.90;1.15;;;9.40;94.30;;;;;;5101859;28;20106;-68
2022/01/23 01:44:13;;;;;;;1.58;1.20;;;9.40;94.30;;;;;;5094319;28;20024;-68
2022/01/23 01:46:58;;;;;;;5.30;0.93;;;9.40;94.40;;;;;;5085630;28;20455;-68
2022/01/23 01:49:31;;;;;;;6.32;0.90;;;9.40;94.40;;;;;;5100343;28;20077;-68
2022/01/23 01:52:03;;;;;;;1.35;0.90;;;9.40;94.40;;;;;;5098361;28;20048;-68
2022/01/23 01:54:32;;;;;;;3.55;1.60;;;9.40;94.30;;;;;;5094598;28;20093;-69
2022/01/23 01:57:06;;;;;;;4.00;1.05;;;9.40;94.30;;;;;;5083495;28;20024;-68
2022/01/23 02:08:22;;;;;;;5.55;1.35;;;9.40;94.30;;;;;;5094471;28;20035;-68
2022/01/23 02:10:48;;;;;;;4.00;1.40;;;9.50;94.30;;;;;;5084967;28;20493;-68
2022/01/23 02:13:17;;;;;;;1.88;1.00;;;9.50;94.30;;;;;;5103533;28;20028;-68
2022/01/23 02:51:15;;;;;;;3.40;1.60;;;9.30;94.40;;;;;;5093394;28;20403;-68
2022/01/23 02:56:33;;;;;;;0.93;0.90;;;9.30;94.40;;;;;;5083358;28;20024;-68
2022/01/23 02:59:11;;;;;;;2.10;1.30;;;9.30;94.40;;;;;;5082547;28;20376;-68
2022/01/23 03:01:47;;;;;;;1.30;0.82;;;9.30;94.40;;;;;;5091967;28;20032;-68
2022/01/23 03:04:35;;;;;;;3.92;1.27;;;9.30;94.40;;;;;;5085608;28;20067;-68
2022/01/23 03:10:17;;;;;;;2.35;1.38;;;9.30;94.40;;;;;;5103188;28;20454;-68
2022/01/23 03:13:26;;;;;;;4.05;1.60;;;9.30;94.40;;;;;;5089977;28;20032;-68
2022/01/23 03:26:21;;;;;;;3.33;1.60;;;9.30;94.40;;;;;;5089993;28;20032;-68
2022/01/23 03:31:42;;;;;;;7.53;2.03;;;9.30;94.30;;;;;;5098877;28;20039;-68
2022/01/23 03:34:09;;;;;;;5.80;2.00;;;9.40;94.30;;;;;;5074071;28;20503;-68
2022/01/23 03:36:37;;;;;;;4.13;1.48;;;9.40;94.30;;;;;;5073127;28;20097;-68
2022/01/23 03:39:10;;;;;;;4.28;1.38;;;9.40;94.30;;;;;;5093139;28;20032;-68
2022/01/23 03:41:38;;;;;;;3.00;1.20;;;9.40;94.30;;;;;;5094031;28;20043;-67
2022/01/23 03:44:09;;;;;;;1.00;0.90;;;9.40;94.20;;;;;;5092044;28;20028;-67
2022/01/23 03:49:31;;;;;;;2.00;1.20;;;9.30;94.50;;;;;;5092909;28;20028;-68
2022/01/23 03:52:06;;;;;;;2.45;1.10;;;9.30;94.20;;;;;;5090548;28;20143;-68
2022/01/23 03:54:39;;;;;;;4.10;1.23;;;9.30;94.30;;;;;;5081874;28;20048;-68
2022/01/23 03:57:06;;;;;;;2.47;1.60;;;9.30;94.30;;;;;;5082930;28;20353;-68
2022/01/23 03:59:34;;;;;;;1.20;0.98;;;9.30;94.30;;;;;;5081675;28;20028;-68
2022/01/23 04:02:01;;;;;;;6.78;2.10;;;9.30;94.30;;;;;;5083788;28;20067;-68
2022/01/23 04:04:40;;;;;;;2.30;0.82;;;9.30;94.30;;;;;;5077808;28;20119;-68
2022/01/23 04:07:22;;;;;;;0.80;0.80;;;9.30;94.30;;;;;;5092745;28;20031;-67
2022/01/23 04:09:49;;;;;;;7.60;1.58;;;9.30;94.30;;;;;;5079702;28;20035;-68
2022/01/23 04:15:02;;;;;;;5.53;1.63;;;9.30;94.40;;;;;;5072101;28;20400;-68
2022/01/23 04:20:37;;;;;;;7.10;1.65;;;9.30;94.30;;;;;;5082745;28;20160;-68
2022/01/23 04:34:17;;;;;;;2.92;1.10;;;9.30;94.30;;;;;;5078422;28;20494;-68
2022/01/23 05:01:06;;;;;;;4.15;1.65;;;9.20;94.40;;;;;;5091811;28;20122;-68
2022/01/23 05:04:17;;;;;;;8.02;1.88;;;9.30;94.40;;;;;;5083578;28;20028;-68
2022/01/23 05:07:05;;;;;;;4.03;1.38;;;9.30;94.40;;;;;;5074385;28;20043;-68
2022/01/23 05:09:51;;;;;;;2.03;1.05;;;9.30;94.40;;;;;;5092138;28;20377;-68
2022/01/23 05:12:35;;;;;;;1.77;1.13;;;9.30;94.40;;;;;;5091289;28;20036;-68
2022/01/23 05:15:01;;;;;;;1.55;1.08;;;9.20;94.40;;;;;;5103880;28;20406;-68
2022/01/23 05:17:27;;;;;;;4.82;1.45;;;9.20;94.40;;;;;;5091289;28;20030;-68
2022/01/23 05:19:53;;;;;;;0.95;0.88;;;9.20;94.40;;;;;;5083890;28;20143;-68
2022/01/23 05:25:06;;;;;;;0.85;0.85;;;9.20;94.50;;;;;;5081919;28;20059;-68
2022/01/23 05:27:32;;;;;;;2.60;1.42;;;9.20;94.40;;;;;;5105300;28;20024;-68
2022/01/23 05:29:59;;;;;;;1.00;0.52;;;9.20;94.50;;;;;;5096701;28;20519;-68
2022/01/23 05:32:28;;;;;;;0.38;0.38;;;9.20;94.50;;;;;;5091560;28;20024;-68
2022/01/23 05:34:55;;;;;;;1.02;0.82;;;9.20;94.50;;;;;;5090757;28;20086;-68
2022/01/23 05:37:25;;;;;;;3.83;1.90;;;9.20;94.50;;;;;;5090358;28;20028;-68
2022/01/23 05:39:51;;;;;;;5.85;2.63;;;9.20;94.50;;;;;;5090608;28;20553;-68
2022/01/23 05:42:18;;;;;;;9.00;2.13;;;9.10;94.50;;;;;;5090978;28;20020;-68
2022/01/23 05:44:46;;;;;;;6.72;2.25;;;9.20;94.60;;;;;;5090053;28;20388;-68
2022/01/23 05:47:13;;;;;;;5.18;2.00;;;9.20;94.50;;;;;;5090967;28;20028;-67
2022/01/23 05:49:57;;;;;;;3.38;1.83;;;9.30;94.50;;;;;;5091196;28;20085;-68
2022/01/23 05:52:34;;;;;;;0.70;0.70;;;9.30;94.40;;;;;;5090575;28;20131;-68
2022/01/23 05:55:18;;;;;;;1.35;0.57;;;9.30;94.30;;;;;;5092435;28;20042;-68
2022/01/23 05:58:07;;;;;;;3.67;1.75;;;9.30;94.30;;;;;;5082744;28;20101;-67
2022/01/23 06:00:40;;;;;;;5.20;2.10;;;9.30;94.30;;;;;;5090541;28;20032;-68
2022/01/23 06:03:10;;;;;;;6.70;2.30;;;9.30;94.30;;;;;;5087519;28;20361;-68
2022/01/23 06:05:46;;;;;;;6.13;2.22;;;9.30;94.40;;;;;;5100383;28;20044;-68
2022/01/23 06:08:18;;;;;;;3.33;1.48;;;9.20;94.30;;;;;;5091082;28;20118;-67
2022/01/23 06:11:01;;;;;;;3.17;1.92;;;9.30;94.40;;;;;;5103965;28;20020;-68
2022/01/23 06:13:39;;;;;;;2.67;1.55;;;9.30;94.30;;;;;;5090611;28;20032;-68
2022/01/23 06:16:06;;;;;;;2.47;1.75;;;9.30;94.30;;;;;;5090756;28;20475;-68
2022/01/23 06:18:35;;;;;;;8.70;2.10;;;9.30;94.30;;;;;;5093411;28;20089;-68
2022/01/23 06:21:21;;;;;;;3.33;1.75;;;9.30;94.30;;;;;;5078838;28;20039;-67
2022/01/23 06:24:03;;;;;;;4.55;1.85;;;9.30;94.30;;;;;;5091841;28;20696;-67
2022/01/23 06:26:54;;;;;;;0.77;0.77;;;9.30;94.20;;;;;;5090125;28;20035;-67
2022/01/23 06:29:21;;;;;;;2.70;1.55;;;9.30;94.20;;;;;;5083481;28;20043;-67
2022/01/23 06:31:47;;;;;;;3.92;2.25;;;9.20;94.20;;;;;;5091607;28;20482;-68
2022/01/23 06:34:15;;;;;;;2.97;1.67;;;9.20;94.20;;;;;;5091294;28;20047;-68
2022/01/23 06:36:41;;;;;;;5.05;1.90;;;9.20;94.20;;;;;;5107052;28;20497;-68
2022/01/23 06:39:09;;;;;;;4.72;2.00;;;9.20;94.20;;;;;;5094936;28;20062;-68
2022/01/23 06:41:40;;;;;;;4.15;1.80;;;9.20;94.20;;;;;;5096836;28;21046;-68
2022/01/23 06:44:26;;;;;;;3.85;1.90;;;9.20;94.30;;;;;;5091346;28;20048;-68
2022/01/23 06:46:53;;;;;;;3.42;1.88;;;9.20;94.20;;;;;;5079638;28;20070;-68
2022/01/23 06:49:18;;;;;;;1.00;0.90;;;9.30;94.20;;;;;;5096808;28;20078;-68
2022/01/23 06:51:45;;;;;;;2.22;1.58;;;9.20;94.20;;;;;;5109410;28;20055;-67
2022/01/23 06:54:13;;;;;;;1.88;0.98;;;9.20;94.20;;;;;;5112891;28;20042;-68
2022/01/23 06:56:39;;;;;;;0.50;0.50;;;9.20;94.20;;;;;;5112389;28;20051;-69
2022/01/23 06:59:05;;;;;;;0.63;0.63;;;9.20;94.20;;;;;;5095241;28;20479;-69
2022/01/23 07:01:31;;;;;;;2.53;0.82;;;9.10;94.20;;;;;;5092964;28;20084;-69
2022/01/23 07:04:02;;;;;;;2.03;1.15;;;9.10;94.20;;;;;;5089379;28;20053;-68
2022/01/23 07:06:48;;;;;;;2.30;1.13;;;9.10;94.30;;;;;;5097184;28;20043;-69
2022/01/23 07:09:24;;;;;;;3.15;1.00;;;9.10;94.30;;;;;;5102208;28;20134;-69
2022/01/23 07:12:11;;;;;;;1.67;1.17;;;9.00;94.30;;;;;;5081832;28;20373;-69
2022/01/23 07:14:54;;;;;;;1.90;1.02;;;9.00;94.30;;;;;;5093844;28;20047;-69
2022/01/23 07:17:42;;;;;;;4.38;1.30;;;9.00;94.30;;;;;;5093531;28;20499;-69
2022/01/23 07:20:21;;;;;;;2.90;1.65;;;9.00;94.40;;;;;;5084124;28;20032;-69
2022/01/23 07:22:47;;;;;;;3.75;1.80;;;9.00;94.40;;;;;;5092515;28;20024;-69
2022/01/23 07:25:13;;;;;;;5.47;2.10;;;9.00;94.40;;;;;;5093376;28;20387;-69
2022/01/23 07:27:47;;;;;;;6.40;1.80;;;9.10;94.40;;;;;;5091268;28;20026;-69
2022/01/23 07:30:27;;;;;;;3.63;1.75;;;9.10;94.40;;;;;;5100372;28;20035;-69
2022/01/23 07:32:53;;;;;;;7.18;1.80;;;9.10;94.40;;;;;;5093271;28;20039;-69
2022/01/23 07:35:19;;;;;;;2.90;1.80;;;9.10;94.30;;;;;;5092141;28;20039;-69
2022/01/23 07:37:45;;;;;;;6.47;1.83;;;9.10;94.30;;;;;;5093081;28;20028;-69
2022/01/23 07:40:30;;;;;;;1.70;1.27;;;9.10;94.30;;;;;;5073781;28;20035;-68
2022/01/23 07:42:56;;;;;;;1.02;0.90;;;9.20;94.30;;;;;;5086264;28;20077;-69
2022/01/23 07:45:40;;;;;;;2.45;1.50;;;9.20;94.20;;;;;;5075486;28;20498;-69
2022/01/23 07:48:22;;;;;;;1.75;1.23;;;9.20;94.20;;;;;;5088716;28;20073;-69
2022/01/23 07:51:04;;;;;;;1.20;1.02;;;9.20;94.20;;;;;;5092057;28;20043;-70
2022/01/23 07:53:39;;;;;;;0.98;0.90;;;9.10;94.10;;;;;;5086236;28;20483;-69
2022/01/23 07:56:07;;;;;;;2.40;1.70;;;9.20;94.10;;;;;;5084130;28;20035;-69
2022/01/23 07:58:46;;;;;;;2.38;1.40;;;9.10;94.40;;;;;;5098482;28;20568;-69
2022/01/23 08:01:30;;;;;;;6.28;2.10;;;9.00;94.10;;;;;;5094349;28;20032;-68
2022/01/23 08:04:21;;;;;;;3.08;1.42;;;9.10;94.20;;;;;;5095729;28;20501;-69
2022/01/23 08:06:54;;;;;;;1.85;1.30;;;9.00;94.20;;;;;;5092736;28;20128;-70
2022/01/23 08:09:59;;;;;;;3.85;1.40;;;9.00;94.20;;;;;;4991741;28;20397;-68
2022/01/23 08:12:27;;;;;;;3.10;1.55;;;9.10;94.20;;;;;;4991471;28;20037;-68
2022/01/23 08:14:53;;;;;;;1.75;1.05;;;9.10;94.20;;;;;;5040924;28;20051;-69
2022/01/23 08:17:27;;;;;;;4.65;1.90;;;9.10;94.20;;;;;;5108365;28;20028;-68
2022/01/23 08:19:58;;;;;;;4.30;1.80;;;9.10;94.20;;;;;;5102852;28;20078;-68
2022/01/23 08:22:26;;;;;;;3.50;1.90;;;9.10;94.20;;;;;;5101619;28;20019;-68
2022/01/23 08:24:54;;;;;;;8.35;2.38;;;9.10;94.30;;;;;;5105484;28;20035;-69
2022/01/23 08:27:20;;;;;;;3.47;2.13;;;9.10;94.30;;;;;;5104981;28;20069;-68
2022/01/23 08:29:46;;;;;;;1.85;1.38;;;9.10;94.30;;;;;;5104215;28;20522;-68
2022/01/23 08:32:11;;;;;;;1.90;1.45;;;9.10;94.20;;;;;;5094940;28;20111;-68
2022/01/23 08:34:38;;;;;;;2.10;1.65;;;9.10;94.20;;;;;;5109447;28;20090;-68
2022/01/23 08:37:05;;;;;;;2.80;1.90;;;9.10;94.20;;;;;;5079538;28;20032;-68
2022/01/23 08:39:35;;;;;;;0.73;0.55;;;9.10;94.20;;;;;;5091912;28;20032;-68
2022/01/23 08:42:03;;;;;;;1.17;0.98;;;9.10;94.10;;;;;;5099505;28;20051;-68
2022/01/23 08:44:29;;;;;;;1.55;1.08;;;9.10;94.10;;;;;;5100967;28;20043;-68
2022/01/23 08:46:55;;;;;;;1.63;1.20;;;9.10;94.20;;;;;;5110195;28;20059;-68
2022/01/23 08:49:23;;;;;;;1.77;1.38;;;9.10;94.20;;;;;;5109052;28;20043;-68
2022/01/23 08:51:50;;;;;;;0.75;0.63;;;9.10;94.20;;;;;;5105330;28;20047;-69
2022/01/23 08:54:16;;;;;;;1.75;1.30;;;9.10;94.20;;;;;;5098963;28;20047;-68
2022/01/23 08:56:43;;;;;;;1.15;0.98;;;9.10;94.30;;;;;;5105639;28;20459;-68
2022/01/23 08:59:09;;;;;;;4.72;1.65;;;9.00;94.30;;;;;;5108005;28;20092;-68
2022/01/23 09:01:35;;;;;;;0.77;0.60;;;9.10;94.30;;;;;;5103227;28;20024;-69
2022/01/23 09:04:03;;;;;;;0.65;0.47;;;9.00;94.30;;;;;;5105883;28;20117;-68
2022/01/23 09:06:28;;;;;;;0.95;0.57;;;9.00;94.30;;;;;;5108099;28;20102;-68
2022/01/23 09:08:54;;;;;;;0.63;0.60;;;9.10;94.30;;;;;;5099089;28;20838;-69
2022/01/23 09:11:27;;;;;;;0.70;0.70;;;9.00;94.40;;;;;;5106837;28;20024;-69
2022/01/23 09:14:12;;;;;;;2.85;0.75;;;9.00;94.40;;;;;;5097576;28;20040;-68
2022/01/23 09:16:40;;;;;;;1.48;0.93;;;9.00;94.50;;;;;;5108404;28;20402;-68
2022/01/23 09:19:07;;;;;;;0.88;0.85;;;9.00;94.60;;;;;;5094107;28;20032;-69
2022/01/23 09:21:33;;;;;;;0.80;0.70;;;8.90;94.60;;;;;;5099531;28;20024;-68
2022/01/23 09:23:59;;;;;;;2.58;1.33;;;8.90;94.60;;;;;;5099453;28;20028;-68
2022/01/23 09:26:33;;;;;;;0.57;0.52;;;8.90;94.70;;;;;;5104169;28;20090;-68
2022/01/23 09:29:01;;;;;;;2.55;1.80;;;8.90;94.70;;;;;;5097038;28;20043;-68
2022/01/23 09:31:33;;;;;;;0.77;0.77;;;8.90;94.80;;;;;;5103618;28;20049;-68
2022/01/23 09:33:58;;;;;;;0.50;0.50;;;8.90;94.80;;;;;;5104543;28;20086;-68
2022/01/23 09:36:24;;;;;;;0.60;0.60;;;8.90;94.80;;;;;;5102124;28;20244;-68
2022/01/23 09:38:50;;;;;;;1.88;1.40;;;8.90;94.80;;;;;;5106546;28;20490;-68
2022/01/23 09:41:20;;;;;;;0.85;0.85;;;8.90;94.80;;;;;;5097282;28;20519;-68
2022/01/23 09:43:45;;;;;;;0.85;0.85;;;8.90;94.90;;;;;;5099088;28;20546;-68
2022/01/23 09:46:14;;;;;;;1.42;1.27;;;8.90;95.20;;;;;;5073417;28;20038;-68
2022/01/23 09:48:43;;;;;;;1.90;1.42;;;8.90;95.00;;;;;;5087705;28;20035;-68
2022/01/23 09:51:10;;;;;;;0.65;0.65;;;8.90;95.00;;;;;;5097017;28;20479;-68
2022/01/23 09:53:40;;;;;;;2.08;1.15;;;8.90;95.00;;;;;;5102321;28;20046;-68
2022/01/23 09:56:09;;;;;;;0.60;0.60;;;8.90;95.00;;;;;;5098850;28;20039;-68
2022/01/23 09:58:38;;;;;;;3.47;1.05;;;8.80;95.00;;;;;;5103363;28;20112;-68
2022/01/23 10:01:04;;;;;;;3.95;0.68;;;8.80;95.10;;;;;;5099721;28;20030;-68
2022/01/23 10:03:30;;;;;;;0.40;0.40;;;8.80;95.20;;;;;;5100778;28;20019;-67
2022/01/23 10:05:56;;;;;;;1.30;0.60;;;8.80;95.30;;;;;;5096798;28;20027;-71
2022/01/23 10:08:23;;;;;;;0.60;0.60;;;8.80;95.40;;;;;;5106229;28;20027;-68
2022/01/23 10:10:54;;;;;;;0.90;0.85;;;8.80;95.40;;;;;;5105051;28;20032;-68
2022/01/23 10:13:25;;;;;;;0.88;0.80;;;8.80;95.40;;;;;;5103099;28;20505;-68
2022/01/23 10:15:51;;;;;;;10.85;1.05;;;8.90;95.40;;;;;;5102692;28;20020;-69
2022/01/23 10:18:18;;;;;;;1.33;0.93;;;8.90;95.40;;;;;;5108659;28;20382;-69
2022/01/23 10:20:47;;;;;;;1.15;0.85;;;9.00;95.40;;;;;;5088710;28;20494;-69
2022/01/23 10:23:14;;;;;;;1.00;0.55;;;9.00;95.40;;;;;;5107048;28;20032;-69
2022/01/23 10:25:42;;;;;;;1.55;0.80;;;9.10;95.30;;;;;;5105209;28;20027;-69
2022/01/23 10:28:18;;;;;;;0.45;0.40;;;9.10;95.30;;;;;;5109701;28;20027;-69
2022/01/23 10:30:46;;;;;;;0.80;0.80;;;9.10;95.30;;;;;;5113364;28;20059;-71
2022/01/23 10:33:27;;;;;;;6.03;0.70;;;9.20;95.30;;;;;;5100754;28;20062;-68
2022/01/23 10:36:07;;;;;;;2.08;1.30;;;9.20;95.20;;;;;;5113542;28;20074;-68
2022/01/23 10:38:53;;;;;;;1.77;1.27;;;9.30;95.20;;;;;;5101677;28;20031;-69
2022/01/23 10:49:50;;;;;;;0.47;0.47;;;9.40;95.10;;;;;;5106179;28;20378;-67
2022/01/23 10:52:35;;;;;;;0.35;0.35;;;9.40;95.00;;;;;;5107538;28;20051;-68
2022/01/23 10:55:03;;;;;;;0.82;0.80;;;9.50;95.00;;;;;;5099129;28;20043;-67
2022/01/23 10:57:43;;;;;;;0.40;0.40;;;9.50;95.00;;;;;;5100460;28;20081;-67
2022/01/23 11:00:29;;;;;;;2.25;1.42;;;9.50;95.00;;;;;;5075436;28;20056;-67
2022/01/23 11:02:57;;;;;;;1.73;0.98;;;9.50;95.00;;;;;;5092260;28;20511;-67
2022/01/23 11:05:38;;;;;;;3.90;1.25;;;9.50;95.00;;;;;;5085483;28;20515;-67
2022/01/23 11:08:22;;;;;;;1.40;1.23;;;9.50;95.00;;;;;;5094216;28;20028;-68
2022/01/23 11:10:55;;;;;;;3.83;1.55;;;9.60;95.00;;;;;;5097061;28;20122;-67
2022/01/23 11:19:25;;;;;;;0.63;0.63;;;9.60;94.90;;;;;;5101142;28;20036;-67
2022/01/23 11:21:53;;;;;;;0.98;0.90;;;9.70;94.90;;;;;;5107321;28;20038;-69
2022/01/23 11:24:22;;;;;;;2.75;1.00;;;9.60;94.90;;;;;;5094695;28;20089;-67
2022/01/23 11:26:52;;;;;;;0.13;0.13;;;9.60;94.90;;;;;;5098380;28;20028;-67
2022/01/23 11:29:19;;;;;;;1.38;0.52;;;9.70;94.90;;;;;;5100667;28;20024;-68
2022/01/23 11:31:45;;;;;;;0.40;0.40;;;9.60;94.90;;;;;;5106298;28;20042;-70
2022/01/23 11:34:13;;;;;;;0.47;0.47;;;9.60;94.90;;;;;;5101131;28;20532;-67
2022/01/23 11:36:39;;;;;;;0.50;0.50;;;9.60;95.00;;;;;;5104582;28;20065;-67
2022/01/23 11:39:15;;;;;;;0.30;0.30;;;9.60;94.90;;;;;;5096561;28;20043;-67
2022/01/23 11:50:43;;;;;;;1.90;0.70;;;9.60;94.90;;;;;;5104715;28;20053;-68
2022/01/23 11:56:27;;;;;;;0.52;0.52;;;9.50;94.80;;;;;;5091511;28;20096;-68
2022/01/23 11:59:13;;;;;;;1.10;0.63;;;9.60;94.90;;;;;;5098256;28;20027;-68
2022/01/23 12:01:41;;;;;;;0.45;0.45;;;9.60;94.90;;;;;;5084187;28;20033;-69
2022/01/23 12:04:07;;;;;;;0.70;0.70;;;9.60;94.90;;;;;;5091289;28;20059;-67
2022/01/23 12:06:35;;;;;;;1.73;1.30;;;9.70;94.90;;;;;;5112787;28;20054;-67
2022/01/23 12:09:10;;;;;;;1.10;1.00;;;9.70;94.80;;;;;;5109800;28;20063;-69
2022/01/23 12:11:53;;;;;;;3.47;0.80;;;9.80;94.80;;;;;;5104163;28;20052;-69
2022/01/23 12:17:12;;;;;;;1.27;0.85;;;9.80;94.70;;;;;;5089991;28;20114;-68
2022/01/23 12:19:44;;;;;;;0.30;0.30;;;9.80;94.70;;;;;;5088299;28;20135;-68
2022/01/23 12:22:34;;;;;;;0.85;0.65;;;9.90;94.70;;;;;;5086353;28;20081;-68
2022/01/23 12:25:06;;;;;;;1.58;1.02;;;9.90;94.70;;;;;;5091946;28;20032;-68
2022/01/23 12:27:34;;;;;;;0.47;0.47;;;9.90;94.60;;;;;;5091911;28;20109;-68
2022/01/23 12:30:31;;;;;;;3.65;0.70;;;9.90;94.60;;;;;;5072330;28;20460;-68
2022/01/23 12:33:10;;;;;;;1.52;0.95;;;9.90;94.60;;;;;;5094922;28;20173;-68
2022/01/23 12:35:42;;;;;;;1.35;1.20;;;9.90;94.60;;;;;;5093929;28;20036;-67
2022/01/23 12:38:10;;;;;;;1.33;1.08;;;10.00;94.50;;;;;;5098830;28;20035;-67
2022/01/23 12:40:45;;;;;;;1.45;1.10;;;10.00;94.50;;;;;;5074033;28;20020;-67
2022/01/23 12:43:18;;;;;;;1.30;1.15;;;10.00;94.50;;;;;;5095683;28;20554;-67
2022/01/23 12:45:52;;;;;;;7.30;1.10;;;10.00;94.50;;;;;;5107446;28;20024;-67
2022/01/23 12:48:39;;;;;;;2.30;1.30;;;10.10;94.50;;;;;;5099965;28;20055;-67
2022/01/23 12:51:12;;;;;;;2.90;1.30;;;10.10;94.50;;;;;;5106453;28;20031;-67
2022/01/23 12:53:58;;;;;;;1.02;0.90;;;10.10;94.50;;;;;;5107567;28;20035;-67
2022/01/23 12:56:30;;;;;;;2.42;1.30;;;10.10;94.50;;;;;;5097654;28;20081;-69
2022/01/23 12:59:10;;;;;;;3.60;2.08;;;10.20;94.50;;;;;;5098053;28;20040;-67
2022/01/23 13:01:38;;;;;;;3.13;1.85;;;10.10;94.40;;;;;;5102344;28;20055;-68
2022/01/23 13:04:08;;;;;;;3.42;2.28;;;10.20;94.40;;;;;;5083045;28;20040;-68
2022/01/23 13:06:40;;;;;;;5.07;1.77;;;10.20;94.40;;;;;;5102395;28;20030;-68
2022/01/23 13:09:26;;;;;;;3.22;1.10;;;10.20;94.40;;;;;;5100972;28;20039;-68
2022/01/23 13:12:49;;;;;;;2.95;1.60;;;10.20;94.40;;;;;;5099649;28;20032;-68
2022/01/23 13:27:00;;;;;;;2.22;1.17;;;10.30;94.30;;;;;;5075933;28;20051;-67
2022/01/23 13:32:26;;;;;;;0.40;0.40;;;10.30;94.30;;;;;;5092090;28;20028;-66
2022/01/23 13:34:56;;;;;;;1.77;1.33;;;10.20;94.40;;;;;;5101563;28;20042;-67
2022/01/23 13:37:24;;;;;;;0.45;0.45;;;10.20;94.40;;;;;;5079967;28;20028;-66
2022/01/23 13:39:59;;;;;;;2.05;1.35;;;10.30;94.50;;;;;;5091926;28;20471;-66
2022/01/23 13:48:46;;;;;;;0.77;0.77;;;10.30;94.50;;;;;;5082986;28;20089;-67
2022/01/23 13:51:27;;;;;;;3.35;1.75;;;10.30;94.50;;;;;;5084031;28;20479;-66
2022/01/23 14:00:12;;;;;;;4.45;2.50;;;10.30;94.60;;;;;;5083983;28;20097;-67
2022/01/23 14:02:40;;;;;;;3.58;1.75;;;10.30;94.50;;;;;;5091008;28;20029;-67
2022/01/23 14:05:13;;;;;;;2.10;1.60;;;10.30;94.60;;;;;;5075984;28;20048;-67
2022/01/23 14:07:50;;;;;;;3.42;2.00;;;10.30;94.60;;;;;;5087934;28;20102;-67
2022/01/23 14:10:19;;;;;;;1.63;1.20;;;10.40;94.60;;;;;;5102162;28;20101;-67
2022/01/23 14:12:47;;;;;;;2.45;1.80;;;10.30;94.60;;;;;;5108005;28;20024;-67
2022/01/23 14:15:16;;;;;;;2.80;1.77;;;10.40;94.60;;;;;;5108715;28;20036;-68
2022/01/23 14:17:55;;;;;;;4.25;1.90;;;10.40;94.60;;;;;;5095244;28;20032;-67
2022/01/23 14:20:20;;;;;;;2.45;1.17;;;10.50;94.60;;;;;;5086006;28;20047;-67
2022/01/23 14:22:48;;;;;;;1.00;0.88;;;10.40;94.50;;;;;;5098910;28;20114;-68
2022/01/23 14:25:17;;;;;;;3.35;1.58;;;10.50;94.60;;;;;;5112280;28;20076;-68
2022/01/23 14:27:46;;;;;;;3.70;1.75;;;10.50;94.50;;;;;;5104380;28;20024;-68
2022/01/23 14:30:20;;;;;;;2.42;2.10;;;10.50;94.50;;;;;;5086179;28;20097;-68
2022/01/23 14:32:49;;;;;;;1.35;0.85;;;10.50;94.50;;;;;;5095494;28;20088;-68
2022/01/23 14:35:29;;;;;;;1.80;1.60;;;10.50;94.50;;;;;;5095450;28;20036;-68
2022/01/23 14:38:08;;;;;;;1.75;1.10;;;10.60;94.40;;;;;;5094699;28;20510;-68
2022/01/23 14:40:34;;;;;;;0.55;0.47;;;10.60;94.50;;;;;;5108825;28;20378;-68
2022/01/23 14:43:11;;;;;;;3.03;2.13;;;10.60;94.50;;;;;;5095357;28;20119;-68
2022/01/23 14:45:42;;;;;;;2.30;1.77;;;10.50;94.40;;;;;;5105288;28;20043;-68
2022/01/23 14:48:10;;;;;;;2.75;1.42;;;10.50;94.30;;;;;;5106764;28;20024;-68
2022/01/23 14:50:39;;;;;;;4.38;1.88;;;10.50;94.40;;;;;;5104964;28;20040;-68
2022/01/23 14:53:24;;;;;;;3.47;2.10;;;10.50;94.40;;;;;;5102013;28;20044;-67
2022/01/23 14:55:57;;;;;;;1.15;1.05;;;10.50;94.40;;;;;;5102313;28;20063;-68
2022/01/23 14:58:23;;;;;;;3.83;2.33;;;10.50;94.40;;;;;;5103660;28;20024;-68
2022/01/23 15:00:54;;;;;;;2.95;2.03;;;10.50;94.40;;;;;;5106099;28;20153;-68
2022/01/23 15:03:21;;;;;;;8.38;2.50;;;10.50;94.40;;;;;;5096076;28;20021;-68
2022/01/23 15:05:47;;;;;;;3.45;2.25;;;10.60;94.40;;;;;;5083044;28;20035;-68
2022/01/23 15:08:20;;;;;;;2.58;2.00;;;10.60;94.40;;;;;;5107858;28;20034;-68
2022/01/23 15:10:48;;;;;;;3.10;2.20;;;10.60;94.30;;;;;;5104550;28;20043;-68
2022/01/23 15:13:14;;;;;;;7.18;1.90;;;10.60;94.30;;;;;;5105103;28;20024;-68
2022/01/23 15:15:41;;;;;;;5.10;1.92;;;10.60;94.30;;;;;;5106042;28;20036;-68
2022/01/23 15:18:07;;;;;;;2.40;1.25;;;10.60;94.20;;;;;;5093109;27;20067;-68
2022/01/23 15:20:35;;;;;;;3.28;1.92;;;10.60;94.20;;;;;;5088860;28;20032;-67
2022/01/23 15:23:03;;;;;;;3.92;2.15;;;10.70;94.30;;;;;;5106586;28;20043;-67
2022/01/23 15:25:29;;;;;;;4.95;2.30;;;10.60;94.20;;;;;;5108029;28;20039;-67
2022/01/23 15:27:55;;;;;;;12.50;3.40;;;10.60;94.20;;;;;;5089948;28;20075;-68
2022/01/23 15:30:23;;;;;;;3.53;2.53;;;10.60;94.10;;;;;;5076906;28;20063;-68
2022/01/23 15:32:50;;;;;;;5.22;2.33;;;10.60;94.10;;;;;;5085161;28;20036;-67
2022/01/23 15:35:17;;;;;;;4.57;2.50;;;10.70;94.10;;;;;;5090714;28;20047;-67
2022/01/23 15:37:43;;;;;;;3.05;1.92;;;10.70;94.10;;;;;;5094329;28;20067;-67
2022/01/23 15:40:11;;;;;;;2.65;1.85;;;10.60;94.10;;;;;;5093901;28;20498;-68
2022/01/23 15:42:38;;;;;;;4.60;2.40;;;10.70;94.20;;;;;;5093831;28;20032;-67
2022/01/23 15:45:05;;;;;;;0.95;0.88;;;10.70;94.10;;;;;;5094318;28;20028;-68
2022/01/23 15:47:31;;;;;;;2.25;1.27;;;10.70;94.10;;;;;;5094235;28;20103;-68
2022/01/23 15:49:56;;;;;;;3.40;1.65;;;10.60;94.10;;;;;;5093629;28;20165;-68
2022/01/23 15:52:22;;;;;;;3.30;1.83;;;10.60;94.10;;;;;;5094078;28;20499;-68
2022/01/23 15:54:48;;;;;;;3.72;2.22;;;10.60;94.00;;;;;;5093086;28;20035;-68
2022/01/23 15:57:15;;;;;;;3.08;1.95;;;10.60;94.00;;;;;;5094207;28;20460;-68
2022/01/23 15:59:41;;;;;;;3.65;2.15;;;10.60;94.00;;;;;;5080914;28;20148;-71
2022/01/23 16:02:07;;;;;;;7.75;2.40;;;10.60;94.00;;;;;;5093230;28;20107;-70
2022/01/23 16:04:37;;;;;;;4.25;2.50;;;10.60;94.00;;;;;;5084788;28;20036;-67
2022/01/23 16:07:04;;;;;;;7.47;2.40;;;10.60;94.00;;;;;;5093440;28;20040;-68
2022/01/23 16:09:30;;;;;;;3.90;1.90;;;10.60;94.00;;;;;;5092943;28;20056;-68
2022/01/23 16:11:55;;;;;;;5.43;2.60;;;10.60;94.00;;;;;;5106985;28;20048;-68
2022/01/23 16:14:22;;;;;;;10.60;3.10;;;10.60;94.00;;;;;;5102986;28;20096;-68
2022/01/23 16:16:48;;;;;;;4.40;2.42;;;10.60;94.00;;;;;;5103236;28;20035;-68
2022/01/23 16:19:14;;;;;;;4.18;2.28;;;10.60;94.00;;;;;;5099256;28;20044;-68
2022/01/23 16:21:41;;;;;;;4.22;2.42;;;10.60;94.00;;;;;;5101022;28;20026;-67
2022/01/23 16:24:07;;;;;;;5.68;2.30;;;10.60;93.90;;;;;;5100083;28;20028;-67
2022/01/23 16:26:33;;;;;;;4.47;2.20;;;10.70;94.00;;;;;;5098268;28;20043;-67
2022/01/23 16:28:58;;;;;;;9.88;2.17;;;10.60;93.90;;;;;;5096399;28;20028;-67
2022/01/23 16:31:24;;;;;;;2.72;1.67;;;10.70;93.90;;;;;;5108199;28;20020;-71
2022/01/23 16:33:50;;;;;;;6.88;1.63;;;10.70;93.90;;;;;;5101200;28;20070;-67